Aviation Digital Data Service (ADDS)

Output produced by METARs form (1239 UTC 26 March 2019)
found at http://www.aviationweather.gov/metar/data/
 
TAF SUCA 261130Z 2612/2712 16015KT 9999 SCT023 SCT070 TX21/2618Z TN11/2709Z 
     PROB40 
     TEMPO 2612/2618 5000 RA BKN010 
     BECMG 2623/2701 10015KT
       
TAF SUDU 261130Z 2612/2712 17010KT 9999 SCT026 SCT200 TX22/2618Z TN11/2709Z 
     BECMG 2623/2701 11010KT 
     TEMPO 2703/2710 5000 BR NSC
       
TAF SUMU 261130Z 2612/2712 15015KT 9999 SCT023 SCT070 TX21/2618Z TN12/2709Z 
     TEMPO 2612/2618 5000 RA BKN015 
     BECMG 2702/2704 08010KT
       
TAF SUAA 261130Z 2612/2712 14010KT 9999 SCT017 SCT070 TX20/2618Z TN12/2709Z 
     TEMPO 2612/2618 3000 RADZ BKN008 
     BECMG 2702/2704 09010KT
       
TAF SULS 261130Z 2612/2712 14015KT 9999 SCT020 SCT080 TX22/2618Z TN12/2709Z 
     TEMPO 2612/2620 3000 RADZ BKN008 
     BECMG 2702/2704 10010KT
       
TAF SURV 261130Z 2612/2712 14005KT 9999 SCT015 TX23/2618Z TN10/2709Z 
     PROB40 
     TEMPO 2612/2618 3000 RADZ BKN008
       
TAF SUSO 261130Z 2612/2712 16010KT 9999 SCT023 SCT070 TX23/2618Z TN12/2709Z 
     TEMPO 2703/2710 3000 BR BKN010